createdAt,value
2022-08-27T00:01:53.039Z,15.53
2022-08-27T00:04:20.978Z,15.44
2022-08-27T00:06:48.494Z,15.57
2022-08-27T00:09:15.943Z,15.57
2022-08-27T00:11:48.293Z,15.70
2022-08-27T00:14:15.695Z,15.58
2022-08-27T00:16:43.314Z,15.68
2022-08-27T00:19:11.739Z,15.67
2022-08-27T00:21:39.362Z,15.56
2022-08-27T00:24:06.755Z,15.50
2022-08-27T00:26:34.976Z,15.36
2022-08-27T00:29:02.395Z,15.14
2022-08-27T00:31:29.929Z,15.08
2022-08-27T00:33:58.433Z,15.07
2022-08-27T00:36:25.847Z,15.17
2022-08-27T00:38:53.794Z,15.13
2022-08-27T00:41:22.936Z,15.12
2022-08-27T00:43:54.202Z,15.28
2022-08-27T00:46:44.972Z,15.20
2022-08-27T00:49:27.097Z,15.10
2022-08-27T00:52:00.471Z,15.18
2022-08-27T00:54:29.023Z,15.20
2022-08-27T00:56:58.757Z,15.39
2022-08-27T00:59:31.185Z,15.18
2022-08-27T01:02:19.088Z,15.19
2022-08-27T01:04:55.629Z,15.02
2022-08-27T01:07:25.012Z,14.73
2022-08-27T01:10:00.478Z,14.74
2022-08-27T01:12:30.800Z,15.06
2022-08-27T01:15:01.377Z,14.97
2022-08-27T01:17:29.638Z,14.99
2022-08-27T01:20:00.626Z,14.67
2022-08-27T01:22:40.094Z,14.79
2022-08-27T01:25:11.741Z,14.86
2022-08-27T01:27:40.489Z,14.64
2022-08-27T01:30:09.238Z,14.58
2022-08-27T01:32:37.360Z,14.50
2022-08-27T01:35:09.569Z,14.66
2022-08-27T01:37:38.149Z,14.62
2022-08-27T01:40:08.532Z,14.41
2022-08-27T01:42:39.669Z,14.19
2022-08-27T01:45:17.336Z,14.47
2022-08-27T01:47:44.782Z,14.57
2022-08-27T01:50:17.939Z,14.47
2022-08-27T01:52:46.974Z,14.71
2022-08-27T01:55:17.224Z,14.73
2022-08-27T01:57:45.053Z,14.62
2022-08-27T02:00:22.622Z,14.77
2022-08-27T02:02:50.602Z,14.72
2022-08-27T02:05:19.087Z,14.38
2022-08-27T02:07:46.787Z,14.56
2022-08-27T02:10:18.122Z,14.54
2022-08-27T02:12:45.646Z,14.50
2022-08-27T02:15:15.470Z,14.46
2022-08-27T02:17:43.746Z,14.58
2022-08-27T02:20:12.002Z,14.53
2022-08-27T02:22:39.352Z,14.54
2022-08-27T02:25:10.440Z,14.45
2022-08-27T02:27:38.117Z,14.45
2022-08-27T02:30:06.563Z,14.51
2022-08-27T02:32:34.695Z,14.52
2022-08-27T02:35:03.793Z,14.50
2022-08-27T02:37:31.010Z,14.57
2022-08-27T02:39:59.153Z,14.53
2022-08-27T02:42:26.678Z,14.44
2022-08-27T02:44:55.109Z,14.18
2022-08-27T02:47:22.769Z,14.32
2022-08-27T02:49:50.109Z,14.33
2022-08-27T02:52:17.864Z,14.41
2022-08-27T02:54:53.498Z,14.44
2022-08-27T02:57:22.484Z,14.60
2022-08-27T02:59:50.794Z,14.43
2022-08-27T03:02:19.935Z,14.33
2022-08-27T03:04:48.065Z,14.21
2022-08-27T03:07:19.047Z,14.24
2022-08-27T03:09:46.845Z,14.25
2022-08-27T03:12:14.176Z,14.27
2022-08-27T03:14:41.991Z,14.32
2022-08-27T03:17:28.406Z,14.32
2022-08-27T03:19:55.788Z,14.31
2022-08-27T03:22:23.524Z,14.26
2022-08-27T03:24:50.962Z,14.26
2022-08-27T03:27:18.364Z,14.13
2022-08-27T03:29:46.057Z,14.05
2022-08-27T03:32:13.404Z,13.91
2022-08-27T03:34:40.838Z,13.85
2022-08-27T03:37:08.484Z,13.75
2022-08-27T03:39:36.129Z,13.54
2022-08-27T03:42:03.808Z,13.32
2022-08-27T03:44:31.815Z,13.30
2022-08-27T03:47:00.191Z,13.27
2022-08-27T03:49:27.779Z,13.45
2022-08-27T03:51:55.591Z,13.52
2022-08-27T03:54:23.180Z,13.66
2022-08-27T03:56:50.803Z,13.42
2022-08-27T03:59:18.552Z,13.47
2022-08-27T04:01:46.497Z,13.59
2022-08-27T04:04:14.390Z,13.34
2022-08-27T04:06:41.984Z,13.51
2022-08-27T04:09:09.389Z,13.65
2022-08-27T04:11:37.635Z,13.76
2022-08-27T04:14:19.761Z,13.45
2022-08-27T04:16:56.635Z,13.66
2022-08-27T04:19:28.073Z,13.51
2022-08-27T04:22:07.050Z,13.36
2022-08-27T04:24:37.159Z,13.53
2022-08-27T04:27:06.500Z,13.64
2022-08-27T04:29:34.471Z,13.57
2022-08-27T04:32:02.270Z,13.62
2022-08-27T04:34:31.066Z,13.64
2022-08-27T04:36:59.536Z,13.72
2022-08-27T04:39:28.241Z,13.66
2022-08-27T04:41:57.586Z,13.68
2022-08-27T04:44:26.848Z,13.72
2022-08-27T04:46:59.768Z,13.88
2022-08-27T04:49:28.843Z,13.31
2022-08-27T04:51:56.385Z,13.51
2022-08-27T04:54:32.640Z,13.46
2022-08-27T04:57:05.628Z,13.61
2022-08-27T04:59:35.050Z,13.64
2022-08-27T05:02:05.829Z,13.66
2022-08-27T05:04:36.834Z,13.90
2022-08-27T05:07:04.860Z,14.06
2022-08-27T05:09:32.458Z,14.00
2022-08-27T05:12:00.269Z,14.00
2022-08-27T05:14:32.769Z,14.30
2022-08-27T05:17:00.714Z,13.98
2022-08-27T05:19:28.488Z,13.97
2022-08-27T05:21:56.046Z,14.31
2022-08-27T05:24:23.569Z,14.62
2022-08-27T05:26:51.694Z,14.88
2022-08-27T05:29:19.289Z,15.04
2022-08-27T05:31:48.667Z,15.03
2022-08-27T05:34:16.878Z,15.02
2022-08-27T05:36:48.549Z,15.29
2022-08-27T05:39:17.587Z,15.43
2022-08-27T05:41:45.238Z,15.62
2022-08-27T05:44:40.277Z,15.72
2022-08-27T05:47:00.339Z,15.97
2022-08-27T05:49:27.858Z,16.03
2022-08-27T05:51:55.578Z,16.11
2022-08-27T05:54:23.841Z,16.23
2022-08-27T05:56:51.306Z,16.40
2022-08-27T05:59:45.244Z,16.54
2022-08-27T06:02:13.056Z,16.70
2022-08-27T06:04:41.013Z,17.02
2022-08-27T06:07:10.738Z,17.03
2022-08-27T06:09:39.059Z,17.06
2022-08-27T06:12:08.200Z,17.14
2022-08-27T06:14:36.408Z,17.16
2022-08-27T06:17:04.537Z,17.18
2022-08-27T06:19:34.931Z,17.28
2022-08-27T06:22:09.950Z,17.54
2022-08-27T06:24:42.743Z,17.65
2022-08-27T06:27:13.900Z,17.60
2022-08-27T06:29:42.215Z,17.77
2022-08-27T06:32:10.651Z,17.89
2022-08-27T06:34:38.496Z,17.96
2022-08-27T06:37:07.147Z,18.03
2022-08-27T06:39:36.360Z,18.37
2022-08-27T06:42:06.463Z,18.42
2022-08-27T06:44:34.283Z,18.67
2022-08-27T06:47:03.890Z,18.90
2022-08-27T06:49:33.681Z,19.10
2022-08-27T06:52:01.379Z,19.30
2022-08-27T06:54:28.791Z,19.12
2022-08-27T06:56:59.072Z,19.44
2022-08-27T06:59:27.933Z,19.57
2022-08-27T07:01:55.341Z,19.68
2022-08-27T07:04:32.153Z,19.90
2022-08-27T07:07:02.338Z,20.11
2022-08-27T07:09:33.266Z,20.16
2022-08-27T07:12:01.767Z,20.34
2022-08-27T07:14:35.463Z,20.56
2022-08-27T07:17:06.082Z,20.54
2022-08-27T07:19:41.152Z,20.62
2022-08-27T07:22:09.587Z,20.87
2022-08-27T07:24:38.272Z,21.03
2022-08-27T07:27:06.295Z,20.98
2022-08-27T07:29:34.314Z,21.31
2022-08-27T07:32:01.733Z,21.30
2022-08-27T07:36:57.135Z,21.66
2022-08-27T07:39:24.654Z,21.73
2022-08-27T07:42:10.657Z,21.87
2022-08-27T07:44:39.537Z,21.94
2022-08-27T07:47:08.728Z,22.42
2022-08-27T07:49:38.709Z,22.61
2022-08-27T07:52:06.955Z,22.80
2022-08-27T07:54:34.548Z,22.82
2022-08-27T07:57:02.015Z,23.21
2022-08-27T07:59:29.852Z,23.35
2022-08-27T08:01:57.376Z,23.57
2022-08-27T08:04:26.806Z,23.79
2022-08-27T08:06:56.119Z,23.76
2022-08-27T08:09:25.190Z,24.00
2022-08-27T08:11:54.124Z,24.41
2022-08-27T08:14:21.721Z,24.62
2022-08-27T08:16:49.681Z,24.71
2022-08-27T08:19:17.814Z,24.88
2022-08-27T08:21:45.162Z,24.89
2022-08-27T08:24:12.535Z,25.31
2022-08-27T08:26:42.261Z,25.38
2022-08-27T08:29:13.756Z,25.62
2022-08-27T08:31:49.846Z,25.50
2022-08-27T08:34:19.258Z,25.41
2022-08-27T08:36:54.010Z,25.71
2022-08-27T08:39:23.274Z,25.90
2022-08-27T08:41:55.524Z,26.17
2022-08-27T08:44:41.818Z,26.35
2022-08-27T08:47:49.063Z,26.69
2022-08-27T08:50:20.008Z,26.78
2022-08-27T08:53:00.782Z,26.75
2022-08-27T08:55:34.704Z,26.81
2022-08-27T08:58:20.871Z,26.77
2022-08-27T09:00:55.368Z,27.09
2022-08-27T09:03:24.329Z,27.12
2022-08-27T09:06:18.879Z,27.28
2022-08-27T09:08:47.652Z,27.26
2022-08-27T09:11:20.416Z,27.42
2022-08-27T09:14:20.548Z,27.76
2022-08-27T09:16:50.650Z,27.64
2022-08-27T09:19:24.648Z,27.61
2022-08-27T09:22:00.762Z,27.61
2022-08-27T09:24:48.899Z,27.70
2022-08-27T09:27:16.408Z,27.69
2022-08-27T09:30:08.251Z,28.10
2022-08-27T09:32:35.679Z,28.25
2022-08-27T09:35:08.976Z,28.19
2022-08-27T09:37:44.223Z,28.09
2022-08-27T09:40:13.577Z,28.22
2022-08-27T09:42:53.555Z,28.05
2022-08-27T09:45:26.286Z,28.21
2022-08-27T09:48:02.777Z,27.91
2022-08-27T09:51:11.602Z,27.72
2022-08-27T09:53:45.254Z,28.10
2022-08-27T09:56:26.740Z,27.94
2022-08-27T09:59:25.224Z,27.89
2022-08-27T10:01:55.072Z,28.38
2022-08-27T10:04:51.232Z,28.69
2022-08-27T10:07:23.077Z,28.82
2022-08-27T10:10:01.738Z,28.71
2022-08-27T10:12:43.802Z,29.08
2022-08-27T10:15:14.528Z,28.97
2022-08-27T10:17:54.038Z,29.49
2022-08-27T10:20:41.152Z,29.57
2022-08-27T10:23:08.615Z,29.90
2022-08-27T10:25:59.176Z,30.05
2022-08-27T10:29:01.844Z,30.14
2022-08-27T10:31:48.389Z,30.55
2022-08-27T10:34:15.860Z,30.47
2022-08-27T10:37:14.229Z,30.74
2022-08-27T10:40:38.988Z,30.36
2022-08-27T10:43:16.206Z,30.27
2022-08-27T10:46:04.742Z,30.44
2022-08-27T10:48:40.638Z,30.22
2022-08-27T10:51:24.832Z,30.18
2022-08-27T10:54:10.561Z,30.23
2022-08-27T10:57:28.517Z,30.44
2022-08-27T11:00:12.415Z,30.48
2022-08-27T11:02:56.715Z,30.64
2022-08-27T11:05:29.592Z,30.75
2022-08-27T11:08:05.469Z,30.32
2022-08-27T11:10:48.607Z,29.95
2022-08-27T11:13:34.069Z,30.11
2022-08-27T11:16:19.252Z,30.20
2022-08-27T11:18:55.074Z,30.44
2022-08-27T11:21:34.750Z,30.27
2022-08-27T11:24:15.369Z,30.31
2022-08-27T11:26:44.646Z,30.66
2022-08-27T11:29:37.683Z,30.87
2022-08-27T11:32:34.747Z,31.00
2022-08-27T11:35:09.917Z,30.84
2022-08-27T11:37:45.490Z,30.26
2022-08-27T11:40:18.426Z,30.13
2022-08-27T11:42:52.657Z,30.58
2022-08-27T11:45:53.100Z,30.84
2022-08-27T11:48:37.178Z,30.57
2022-08-27T11:51:12.545Z,30.92
2022-08-27T11:53:57.183Z,31.16
2022-08-27T11:56:30.680Z,30.92
2022-08-27T11:59:27.898Z,31.03
2022-08-27T12:02:12.022Z,31.18
2022-08-27T12:04:42.388Z,31.63
2022-08-27T12:07:17.601Z,31.98
2022-08-27T12:09:56.670Z,32.16
2022-08-27T12:12:45.816Z,32.20
2022-08-27T12:15:42.298Z,32.47
2022-08-27T12:18:28.110Z,32.43
2022-08-27T12:21:34.261Z,32.40
2022-08-27T12:24:37.003Z,32.47
2022-08-27T12:27:21.752Z,32.88
2022-08-27T12:29:58.157Z,32.59
2022-08-27T12:32:25.879Z,32.52
2022-08-27T12:35:03.291Z,31.87
2022-08-27T12:37:39.033Z,31.20
2022-08-27T12:40:21.308Z,31.96
2022-08-27T12:43:05.109Z,32.60
2022-08-27T12:45:32.557Z,32.66
2022-08-27T12:48:01.300Z,32.27
2022-08-27T12:50:30.760Z,31.68
2022-08-27T12:53:23.695Z,31.93
2022-08-27T12:56:08.618Z,31.53
2022-08-27T12:59:16.409Z,31.15
2022-08-27T13:01:59.482Z,31.51
2022-08-27T13:04:30.686Z,31.70
2022-08-27T13:06:58.491Z,31.65
2022-08-27T13:09:35.157Z,31.76
2022-08-27T13:12:07.282Z,31.51
2022-08-27T13:14:40.277Z,32.24
2022-08-27T13:17:11.851Z,32.37
2022-08-27T13:19:55.324Z,31.54
2022-08-27T13:22:25.444Z,31.21
2022-08-27T13:24:55.707Z,31.50
2022-08-27T13:27:32.639Z,32.08
2022-08-27T13:30:10.652Z,32.35
2022-08-27T13:32:42.397Z,32.47
2022-08-27T13:35:10.359Z,32.29
2022-08-27T13:37:51.765Z,32.53
2022-08-27T13:40:29.711Z,32.52
2022-08-27T13:43:10.121Z,32.51
2022-08-27T13:45:45.547Z,32.44
2022-08-27T13:48:16.638Z,32.94
2022-08-27T13:50:52.368Z,32.66
2022-08-27T13:53:43.263Z,32.56
2022-08-27T13:56:11.725Z,32.39
2022-08-27T13:58:38.966Z,32.48
2022-08-27T14:01:16.553Z,32.68
2022-08-27T14:03:55.790Z,32.46
2022-08-27T14:06:47.617Z,31.25
2022-08-27T14:09:23.771Z,31.72
2022-08-27T14:12:02.690Z,32.23
2022-08-27T14:14:36.353Z,31.58
2022-08-27T14:17:05.169Z,31.99
2022-08-27T14:19:36.301Z,31.93
2022-08-27T14:22:05.126Z,31.93
2022-08-27T14:24:32.754Z,31.55
2022-08-27T14:27:08.742Z,31.20
2022-08-27T14:29:36.872Z,31.39
2022-08-27T14:32:04.507Z,31.80
2022-08-27T14:34:31.995Z,31.69
2022-08-27T14:36:59.790Z,31.79
2022-08-27T14:39:27.242Z,32.35
2022-08-27T14:41:54.702Z,32.66
2022-08-27T14:44:22.865Z,33.11
2022-08-27T14:46:50.924Z,34.00
2022-08-27T14:49:23.852Z,34.72
2022-08-27T14:51:51.795Z,35.16
2022-08-27T14:54:19.425Z,35.64
2022-08-27T14:56:46.918Z,35.85
2022-08-27T14:59:14.667Z,35.91
2022-08-27T15:01:42.194Z,36.31
2022-08-27T15:04:09.925Z,36.46
2022-08-27T15:06:37.700Z,37.04
2022-08-27T15:09:05.273Z,37.03
2022-08-27T15:11:36.426Z,38.06
2022-08-27T15:14:11.143Z,38.09
2022-08-27T15:16:41.838Z,37.43
2022-08-27T15:19:11.684Z,36.25
2022-08-27T15:21:41.283Z,34.82
2022-08-27T15:24:15.872Z,33.75
2022-08-27T15:26:43.854Z,32.91
2022-08-27T15:29:12.372Z,31.79
2022-08-27T15:31:42.387Z,32.10
2022-08-27T15:34:11.053Z,33.21
2022-08-27T15:36:39.212Z,34.29
2022-08-27T15:39:07.431Z,34.27
2022-08-27T15:41:41.817Z,35.16
2022-08-27T15:44:24.128Z,35.46
2022-08-27T15:46:51.447Z,36.10
2022-08-27T15:49:18.879Z,35.95
2022-08-27T15:51:46.679Z,33.96
2022-08-27T15:54:14.385Z,34.30
2022-08-27T15:56:41.763Z,34.45
2022-08-27T15:59:09.871Z,34.41
2022-08-27T16:01:38.696Z,34.51
2022-08-27T16:04:07.214Z,34.45
2022-08-27T16:06:35.216Z,33.98
2022-08-27T16:09:03.595Z,34.00
2022-08-27T16:11:31.405Z,33.89
2022-08-27T16:13:58.870Z,32.59
2022-08-27T16:16:31.564Z,31.96
2022-08-27T16:19:01.817Z,30.87
2022-08-27T16:21:29.636Z,30.29
2022-08-27T16:23:57.413Z,29.49
2022-08-27T16:26:25.162Z,29.30
2022-08-27T16:28:52.759Z,29.26
2022-08-27T16:31:20.830Z,29.00
2022-08-27T16:33:49.012Z,29.22
2022-08-27T16:36:16.602Z,28.81
2022-08-27T16:38:44.132Z,28.52
2022-08-27T16:41:14.127Z,28.19
2022-08-27T16:43:41.868Z,27.67
2022-08-27T16:46:09.923Z,27.21
2022-08-27T16:49:01.465Z,27.06
2022-08-27T16:51:34.526Z,27.21
2022-08-27T16:54:05.248Z,26.69
2022-08-27T16:56:37.079Z,26.22
2022-08-27T16:59:05.889Z,26.15
2022-08-27T17:01:34.477Z,26.10
2022-08-27T17:04:10.993Z,25.91
2022-08-27T17:06:41.209Z,25.80
2022-08-27T17:09:10.703Z,25.83
2022-08-27T17:11:42.003Z,25.59
2022-08-27T17:14:13.455Z,25.59
2022-08-27T17:16:41.833Z,25.40
2022-08-27T17:19:13.303Z,25.37
2022-08-27T17:21:45.674Z,25.08
2022-08-27T17:24:13.808Z,24.04
2022-08-27T17:26:41.231Z,24.40
2022-08-27T17:29:08.942Z,24.61
2022-08-27T17:31:39.464Z,24.56
2022-08-27T17:34:12.404Z,24.55
2022-08-27T17:36:40.181Z,24.17
2022-08-27T17:39:13.504Z,24.34
2022-08-27T17:41:44.461Z,24.15
2022-08-27T17:44:31.841Z,23.74
2022-08-27T17:47:03.066Z,23.63
2022-08-27T17:49:31.314Z,23.56
2022-08-27T17:52:01.589Z,23.37
2022-08-27T17:54:39.562Z,22.95
2022-08-27T17:57:40.251Z,23.17
2022-08-27T18:00:11.842Z,23.17
2022-08-27T18:02:44.377Z,22.72
2022-08-27T18:05:13.457Z,22.68
2022-08-27T18:07:42.785Z,22.86
2022-08-27T18:10:12.755Z,22.74
2022-08-27T18:12:41.320Z,22.65
2022-08-27T18:15:25.918Z,22.70
2022-08-27T18:17:54.584Z,22.51
2022-08-27T18:20:24.909Z,22.00
2022-08-27T18:22:52.510Z,22.10
2022-08-27T18:25:26.744Z,22.04
2022-08-27T18:27:57.669Z,22.27
2022-08-27T18:30:25.755Z,22.34
2022-08-27T18:32:55.390Z,22.03
2022-08-27T18:35:34.023Z,22.04
2022-08-27T18:38:02.246Z,22.08
2022-08-27T18:40:32.385Z,22.04
2022-08-27T18:42:59.816Z,22.01
2022-08-27T18:45:29.258Z,21.90
2022-08-27T18:47:59.173Z,21.89
2022-08-27T18:50:27.541Z,21.52
2022-08-27T18:52:56.933Z,21.15
2022-08-27T18:55:28.254Z,21.29
2022-08-27T18:57:56.152Z,21.45
2022-08-27T19:00:25.354Z,21.38
2022-08-27T19:02:53.742Z,21.58
2022-08-27T19:05:26.587Z,21.48
2022-08-27T19:07:55.116Z,21.47
2022-08-27T19:10:23.600Z,21.59
2022-08-27T19:12:51.206Z,21.50
2022-08-27T19:15:19.233Z,21.53
2022-08-27T19:17:51.135Z,21.66
2022-08-27T19:20:20.016Z,21.60
2022-08-27T19:22:48.573Z,21.44
2022-08-27T19:25:16.771Z,21.37
2022-08-27T19:27:46.515Z,21.05
2022-08-27T19:30:15.261Z,21.39
2022-08-27T19:32:43.383Z,20.98
2022-08-27T19:35:11.406Z,20.85
2022-08-27T19:37:47.380Z,20.57
2022-08-27T19:40:22.323Z,20.08
2022-08-27T19:42:51.571Z,20.21
2022-08-27T19:45:22.966Z,20.29
2022-08-27T19:47:52.649Z,20.23
2022-08-27T19:50:22.131Z,20.44
2022-08-27T19:52:50.765Z,20.32
2022-08-27T19:55:19.375Z,20.23
2022-08-27T19:57:47.491Z,20.22
2022-08-27T20:00:19.236Z,20.07
2022-08-27T20:02:47.324Z,20.26
2022-08-27T20:05:20.067Z,20.11
2022-08-27T20:07:49.670Z,20.01
2022-08-27T20:10:22.214Z,20.16
2022-08-27T20:12:50.249Z,20.08
2022-08-27T20:15:19.610Z,20.10
2022-08-27T20:17:48.068Z,19.91
2022-08-27T20:20:23.042Z,19.90
2022-08-27T20:22:51.394Z,19.84
2022-08-27T20:25:19.632Z,19.74
2022-08-27T20:27:47.836Z,19.71
2022-08-27T20:30:17.558Z,19.62
2022-08-27T20:32:47.296Z,19.66
2022-08-27T20:35:16.022Z,19.56
2022-08-27T20:37:43.596Z,19.49
2022-08-27T20:40:15.913Z,19.53
2022-08-27T20:42:44.557Z,19.22
2022-08-27T20:45:12.835Z,19.43
2022-08-27T20:47:42.339Z,19.22
2022-08-27T20:50:11.944Z,19.00
2022-08-27T20:52:41.585Z,18.91
2022-08-27T20:55:10.075Z,18.78
2022-08-27T20:58:01.091Z,18.76
2022-08-27T21:00:33.069Z,19.03
2022-08-27T21:03:00.464Z,19.17
2022-08-27T21:05:27.930Z,19.05
2022-08-27T21:07:55.696Z,19.03
2022-08-27T21:10:23.077Z,19.03
2022-08-27T21:12:50.596Z,18.96
2022-08-27T21:15:18.608Z,18.93
2022-08-27T21:17:46.003Z,18.95
2022-08-27T21:20:14.023Z,18.83
2022-08-27T21:22:44.013Z,18.57
2022-08-27T21:25:14.044Z,18.61
2022-08-27T21:27:42.718Z,18.70
2022-08-27T21:30:11.703Z,18.84
2022-08-27T21:32:39.203Z,18.75
2022-08-27T21:35:07.199Z,18.80
2022-08-27T21:37:34.802Z,18.73
2022-08-27T21:40:03.409Z,18.75
2022-08-27T21:42:30.979Z,18.73
2022-08-27T21:44:58.299Z,18.61
2022-08-27T21:47:25.907Z,18.20
2022-08-27T21:49:53.760Z,18.21
2022-08-27T21:52:21.112Z,18.34
2022-08-27T21:54:48.420Z,18.39
2022-08-27T21:57:16.201Z,18.38
2022-08-27T21:59:48.935Z,18.10
2022-08-27T22:02:38.936Z,17.92
2022-08-27T22:05:07.099Z,18.04
2022-08-27T22:07:34.432Z,18.13
2022-08-27T22:10:01.776Z,18.17
2022-08-27T22:12:29.521Z,18.21
2022-08-27T22:14:56.809Z,18.23
2022-08-27T22:17:24.272Z,18.15
2022-08-27T22:19:52.047Z,18.30
2022-08-27T22:22:19.342Z,18.09
2022-08-27T22:24:46.637Z,17.83
2022-08-27T22:27:14.352Z,17.40
2022-08-27T22:29:41.709Z,17.34
2022-08-27T22:32:09.080Z,17.37
2022-08-27T22:34:37.013Z,17.53
2022-08-27T22:37:04.872Z,17.62
2022-08-27T22:39:32.322Z,17.82
2022-08-27T22:42:00.226Z,17.85
2022-08-27T22:44:29.511Z,17.80
2022-08-27T22:46:57.583Z,17.75
2022-08-27T22:49:25.462Z,17.72
2022-08-27T22:51:52.898Z,17.79
2022-08-27T22:54:20.131Z,17.77
2022-08-27T22:56:47.852Z,17.63
2022-08-27T22:59:15.445Z,17.11
2022-08-27T23:01:42.896Z,16.96
2022-08-27T23:04:10.670Z,17.05
2022-08-27T23:06:38.740Z,16.95
2022-08-27T23:09:06.181Z,17.21
2022-08-27T23:11:35.605Z,17.33
2022-08-27T23:14:03.007Z,17.26
2022-08-27T23:16:31.948Z,17.33
2022-08-27T23:18:59.640Z,17.43
2022-08-27T23:21:26.961Z,17.29
2022-08-27T23:23:55.019Z,17.28
2022-08-27T23:26:41.163Z,17.20
2022-08-27T23:29:11.346Z,17.17
2022-08-27T23:31:39.202Z,16.72
2022-08-27T23:34:06.713Z,16.70
2022-08-27T23:36:34.965Z,16.90
2022-08-27T23:39:03.192Z,16.91
2022-08-27T23:41:30.528Z,16.97
2022-08-27T23:43:58.018Z,16.97
2022-08-27T23:46:25.714Z,17.04
2022-08-27T23:48:53.268Z,16.78
2022-08-27T23:51:20.821Z,16.63
2022-08-27T23:53:48.582Z,16.71
2022-08-27T23:56:15.914Z,16.73
2022-08-27T23:58:43.385Z,16.66
